sensor_id;sensor_type;location;lat;lon;timestamp;temperature;humidity
73833;SHT30;62179;48.444;-4.464;2022-08-26T16:59:20;22.01;60.45
73833;SHT30;62179;48.444;-4.464;2022-08-26T17:01:45;21.97;60.12
73833;SHT30;62179;48.444;-4.464;2022-08-26T17:04:11;22.00;60.79
73833;SHT30;62179;48.444;-4.464;2022-08-26T17:06:36;22.04;60.30
73833;SHT30;62179;48.444;-4.464;2022-08-26T17:09:02;22.05;60.20
73833;SHT30;62179;48.444;-4.464;2022-08-26T17:11:28;22.02;59.92
73833;SHT30;62179;48.444;-4.464;2022-08-26T17:13:53;22.02;60.28
73833;SHT30;62179;48.444;-4.464;2022-08-26T17:16:19;22.02;59.95
73833;SHT30;62179;48.444;-4.464;2022-08-26T17:18:44;22.02;60.18
73833;SHT30;62179;48.444;-4.464;2022-08-26T17:21:11;22.07;60.83
73833;SHT30;62179;48.444;-4.464;2022-08-26T17:23:38;22.00;59.90
73833;SHT30;62179;48.444;-4.464;2022-08-26T17:26:05;21.91;58.81
73833;SHT30;62179;48.444;-4.464;2022-08-26T17:28:31;21.78;59.40
73833;SHT30;62179;48.444;-4.464;2022-08-26T17:30:57;21.76;59.77
73833;SHT30;62179;48.444;-4.464;2022-08-26T17:33:24;21.67;60.44
73833;SHT30;62179;48.444;-4.464;2022-08-26T17:35:49;21.61;60.46
73833;SHT30;62179;48.444;-4.464;2022-08-26T17:38:15;21.54;60.63
73833;SHT30;62179;48.444;-4.464;2022-08-26T17:40:40;21.47;61.27
73833;SHT30;62179;48.444;-4.464;2022-08-26T17:43:06;21.43;61.55
73833;SHT30;62179;48.444;-4.464;2022-08-26T17:45:31;21.46;61.55
73833;SHT30;62179;48.444;-4.464;2022-08-26T17:47:56;21.42;61.60
73833;SHT30;62179;48.444;-4.464;2022-08-26T17:50:22;21.39;61.58
73833;SHT30;62179;48.444;-4.464;2022-08-26T17:52:48;21.38;61.92
73833;SHT30;62179;48.444;-4.464;2022-08-26T17:55:15;21.30;61.79
73833;SHT30;62179;48.444;-4.464;2022-08-26T17:57:41;21.25;62.10
73833;SHT30;62179;48.444;-4.464;2022-08-26T18:00:15;21.19;62.22
73833;SHT30;62179;48.444;-4.464;2022-08-26T18:02:41;21.15;62.62
73833;SHT30;62179;48.444;-4.464;2022-08-26T18:05:09;21.12;62.79
73833;SHT30;62179;48.444;-4.464;2022-08-26T18:07:36;21.11;62.99
73833;SHT30;62179;48.444;-4.464;2022-08-26T18:10:03;21.08;63.09
73833;SHT30;62179;48.444;-4.464;2022-08-26T18:12:29;21.03;63.60
73833;SHT30;62179;48.444;-4.464;2022-08-26T18:14:55;20.99;64.20
73833;SHT30;62179;48.444;-4.464;2022-08-26T18:17:21;20.94;64.28
73833;SHT30;62179;48.444;-4.464;2022-08-26T18:19:46;20.90;64.97
73833;SHT30;62179;48.444;-4.464;2022-08-26T18:22:12;20.82;65.05
73833;SHT30;62179;48.444;-4.464;2022-08-26T18:24:37;20.77;65.29
73833;SHT30;62179;48.444;-4.464;2022-08-26T18:27:03;20.75;65.40
73833;SHT30;62179;48.444;-4.464;2022-08-26T18:29:28;20.68;65.80
73833;SHT30;62179;48.444;-4.464;2022-08-26T18:31:54;20.64;66.02
73833;SHT30;62179;48.444;-4.464;2022-08-26T18:34:19;20.60;66.17
73833;SHT30;62179;48.444;-4.464;2022-08-26T18:36:45;20.55;66.33
73833;SHT30;62179;48.444;-4.464;2022-08-26T18:39:13;20.55;66.14
73833;SHT30;62179;48.444;-4.464;2022-08-26T18:41:44;20.57;65.95
73833;SHT30;62179;48.444;-4.464;2022-08-26T18:44:11;20.50;65.98
73833;SHT30;62179;48.444;-4.464;2022-08-26T18:46:37;20.40;66.25
73833;SHT30;62179;48.444;-4.464;2022-08-26T18:49:03;20.37;66.25
73833;SHT30;62179;48.444;-4.464;2022-08-26T18:51:31;20.36;66.54
73833;SHT30;62179;48.444;-4.464;2022-08-26T18:53:58;20.32;66.40
73833;SHT30;62179;48.444;-4.464;2022-08-26T18:56:24;20.29;66.40
73833;SHT30;62179;48.444;-4.464;2022-08-26T18:58:50;20.24;66.34
73833;SHT30;62179;48.444;-4.464;2022-08-26T19:01:16;20.19;66.40
73833;SHT30;62179;48.444;-4.464;2022-08-26T19:03:43;20.14;66.48
73833;SHT30;62179;48.444;-4.464;2022-08-26T19:06:13;20.10;66.77
73833;SHT30;62179;48.444;-4.464;2022-08-26T19:08:38;20.05;66.98
73833;SHT30;62179;48.444;-4.464;2022-08-26T19:11:04;19.97;67.31
73833;SHT30;62179;48.444;-4.464;2022-08-26T19:13:29;19.92;67.63
73833;SHT30;62179;48.444;-4.464;2022-08-26T19:15:55;19.85;67.99
73833;SHT30;62179;48.444;-4.464;2022-08-26T19:18:21;19.81;68.21
73833;SHT30;62179;48.444;-4.464;2022-08-26T19:20:46;19.76;68.52
73833;SHT30;62179;48.444;-4.464;2022-08-26T19:23:13;19.73;68.80
73833;SHT30;62179;48.444;-4.464;2022-08-26T19:25:50;19.65;68.99
73833;SHT30;62179;48.444;-4.464;2022-08-26T19:28:18;19.59;69.37
73833;SHT30;62179;48.444;-4.464;2022-08-26T19:30:45;19.55;69.55
73833;SHT30;62179;48.444;-4.464;2022-08-26T19:33:12;19.54;69.62
73833;SHT30;62179;48.444;-4.464;2022-08-26T19:35:40;19.50;69.58
73833;SHT30;62179;48.444;-4.464;2022-08-26T19:38:06;19.50;69.69
73833;SHT30;62179;48.444;-4.464;2022-08-26T19:40:34;19.44;69.90
73833;SHT30;62179;48.444;-4.464;2022-08-26T19:43:02;19.41;69.86
73833;SHT30;62179;48.444;-4.464;2022-08-26T19:45:29;19.35;70.06
73833;SHT30;62179;48.444;-4.464;2022-08-26T19:47:56;19.34;70.17
73833;SHT30;62179;48.444;-4.464;2022-08-26T19:50:26;19.30;70.24
73833;SHT30;62179;48.444;-4.464;2022-08-26T19:52:53;19.25;70.34
73833;SHT30;62179;48.444;-4.464;2022-08-26T19:55:21;19.23;70.48
73833;SHT30;62179;48.444;-4.464;2022-08-26T19:57:48;19.17;70.53
73833;SHT30;62179;48.444;-4.464;2022-08-26T20:00:19;19.11;70.62
73833;SHT30;62179;48.444;-4.464;2022-08-26T20:02:47;19.11;70.64
73833;SHT30;62179;48.444;-4.464;2022-08-26T20:05:18;19.08;70.93
73833;SHT30;62179;48.444;-4.464;2022-08-26T20:07:45;19.04;70.96
73833;SHT30;62179;48.444;-4.464;2022-08-26T20:10:12;19.00;71.21
73833;SHT30;62179;48.444;-4.464;2022-08-26T20:12:39;18.97;71.48
73833;SHT30;62179;48.444;-4.464;2022-08-26T20:15:09;18.93;71.62
73833;SHT30;62179;48.444;-4.464;2022-08-26T20:17:35;18.93;71.71
